Aérodrome :
LOGIN :

S'inscrire | Disclaimer

   EN    FR    IT 

 










Légende :    VFR   VFR Marginal   IFR   IFR Intensif   IFR Très Intensif
Visi : 
Plafond : 
>= 8 km
>= 3000ft
5 à 8 km
1000 à 3000 ft
1500m à 5 km
500 à 1000 ft
800 à 1500m
200 à 500 ft
< 800m
< 200 ft
Symboles :   Orages  Brouillard  Fortes neiges  Fortes précipitations  Vent > 20 kt
SIGMETs :   Divers  Orages  Givrage  Turbulence  Onde Orograph.  Cendres Volcan.







- Altitude de l'aérodrome : 1455 ft


ETIH - Hohenfels Army Air Field

DERNIER METAR :
  • 140956Z AUTO 27010KT 9999 BKN065 21/14 A2999 RMK AO2 SLP144 T02080140 $

METARs EXPIRÉS :
  • 140856Z AUTO 27008KT 9999 FEW025 SCT038 BKN050 20/15 A2999 RMK AO2 SLP144 T02020152 52010 $
  • 140843Z AUTO 26009KT 9999 SCT024 BKN039 20/15 A2999 RMK AO2 SLP144 $
  • 140816Z AUTO 25007KT 9999 BKN023 20/15 A2999 RMK AO2 BKN V SCT SLP144 $
  • 140810Z AUTO 25008KT 9999 SCT023 19/16 A2999 RMK AO2 SLP146 $
  • 140801Z AUTO 24006KT 9999 BKN022 19/15 A2999 RMK AO2 SLP146 $
  • 140756Z AUTO 28010KT 9999 SCT021 19/15 A2998 RMK AO2 SLP142 T01880153 $

Prévision TAF périmée.
Pas de NOTAMs connus pour ce terrain.



MET'MAP, la Météo Aéronautique d'un coup d'oeil ! - Copyright ORBIFLY Décembre 2007 - Disclaimer

ORBIFLY MET'MAP TEAM :

Programmation & Développement : Alexandra Zaïnal
Conception & Développement : Baudouin d'Aumeries
Co-Programmation & Développement : Marc-Olivier Méhu
Soutien technique & logistique : Manuel Goepfert

Contact : metmap@orbifly.com




SOURCES & CREDITS :

   NOAA